Time;durP1;ratioP1;P1;durP2;ratioP2;P2;SDS_P1;SDS_P2;PMS_P1;PMS_P2;Temp;Humidity;BMP_temperature;BMP_pressure;BME280_temperature;BME280_humidity;BME280_pressure;Samples;Min_cycle;Max_cycle;Signal;HPM_P1;HPM_P2
2022/03/24 00:02:12;;;;;;;;;;;;;;;6.98;68.83;101950.03;5017687;28;1313;-95
2022/03/24 00:04:39;;;;;;;;;;;;;;;6.97;69.05;101943.84;5020019;28;1659;-95
2022/03/24 00:07:06;;;;;;;;;;;;;;;6.97;69.15;101943.84;5017695;28;1248;-96
2022/03/24 00:09:32;;;;;;;;;;;;;;;6.96;68.92;101941.31;5024112;28;1470;-95
2022/03/24 00:11:59;;;;;;;;;;;;;;;6.95;68.89;101943.16;5037282;28;1333;-95
2022/03/24 00:14:26;;;;;;;;;;;;;;;6.94;68.79;101940.63;5027330;28;2061;-96
2022/03/24 00:16:52;;;;;;;;;;;;;;;6.94;68.85;101935.28;5037579;28;1220;-96
2022/03/24 00:19:19;;;;;;;;;;;;;;;6.94;68.85;101937.97;5033549;28;1309;-95
2022/03/24 00:21:45;;;;;;;;;;;;;;;6.92;69.11;101939.97;5017587;28;1306;-96
2022/03/24 00:24:12;;;;;;;;;;;;;;;6.92;68.46;101942.66;5017450;28;3462;-96
2022/03/24 00:26:39;;;;;;;;;;;;;;;6.90;68.64;101928.59;5047651;28;3806;-96
2022/03/24 00:29:05;;;;;;;;;;;;;;;6.90;69.04;101928.59;5053648;28;1892;-95
2022/03/24 00:31:32;;;;;;;;;;;;;;;6.88;68.82;101918.00;5037124;28;1235;-96
2022/03/24 00:33:59;;;;;;;;;;;;;;;6.89;69.03;101918.88;5037469;28;1981;-96
2022/03/24 00:36:26;;;;;;;;;;;;;;;6.87;68.93;101927.06;5037042;28;1375;-96
2022/03/24 00:38:55;;;;;;;;;;;;;;;6.87;68.86;101912.84;5033314;28;1517;-95
2022/03/24 00:41:21;;;;;;;;;;;;;;;6.86;68.93;101914.69;5033968;28;1368;-96
2022/03/24 00:43:48;;;;;;;;;;;;;;;6.85;68.93;101914.84;5037518;28;1351;-95
2022/03/24 00:46:15;;;;;;;;;;;;;;;6.85;68.98;101912.97;5030911;28;1546;-96
2022/03/24 00:48:41;;;;;;;;;;;;;;;6.84;68.77;101908.63;5017630;28;1298;-96
2022/03/24 00:51:08;;;;;;;;;;;;;;;6.82;68.90;101908.81;5019127;28;1840;-96
2022/03/24 00:53:35;;;;;;;;;;;;;;;6.82;69.01;101911.50;5052661;28;1910;-96
2022/03/24 00:56:01;;;;;;;;;;;;;;;6.82;68.87;101906.13;5033805;28;1328;-95
2022/03/24 00:58:28;;;;;;;;;;;;;;;6.81;68.77;101904.44;5037461;28;1180;-96
2022/03/24 01:00:55;;;;;;;;;;;;;;;6.79;68.60;101898.44;5039655;28;1285;-95
2022/03/24 01:03:22;;;;;;;;;;;;;;;6.78;69.01;101898.59;5039265;28;1482;-96
2022/03/24 01:05:48;;;;;;;;;;;;;;;6.77;69.01;101903.09;5027116;28;1211;-96
2022/03/24 01:08:17;;;;;;;;;;;;;;;6.75;69.00;101891.69;5039813;28;1525;-95
2022/03/24 01:10:43;;;;;;;;;;;;;;;6.76;68.58;101895.22;5040601;28;1190;-95
2022/03/24 01:13:10;;;;;;;;;;;;;;;6.76;68.85;101889.84;5039015;28;1521;-96
2022/03/24 01:15:36;;;;;;;;;;;;;;;6.75;68.78;101898.91;5032604;28;2218;-95
2022/03/24 01:18:03;;;;;;;;;;;;;;;6.73;68.90;101888.34;5040309;28;1272;-96
2022/03/24 01:20:30;;;;;;;;;;;;;;;6.73;68.78;101884.81;5040649;28;1274;-96
2022/03/24 01:22:56;;;;;;;;;;;;;;;6.71;68.56;101876.97;5039937;28;1525;-96
2022/03/24 01:25:27;;;;;;;;;;;;;;;6.71;68.54;101884.19;5026806;28;4221;-96
2022/03/24 01:27:53;;;;;;;;;;;;;;;6.69;68.52;101878.97;5030860;28;1175;-96
2022/03/24 01:30:20;;;;;;;;;;;;;;;6.69;68.49;101875.47;5036841;28;1281;-96
2022/03/24 01:32:46;;;;;;;;;;;;;;;6.68;68.52;101881.81;5032295;28;1483;-96
2022/03/24 01:35:13;;;;;;;;;;;;;;;6.67;68.54;101880.97;5028784;28;1914;-96
2022/03/24 01:37:40;;;;;;;;;;;;;;;6.66;68.93;101881.13;5025579;28;2107;-96
2022/03/24 01:40:07;;;;;;;;;;;;;;;6.65;68.57;101876.75;5038504;28;1502;-96
2022/03/24 01:42:34;;;;;;;;;;;;;;;6.64;68.49;101875.94;5040151;28;1307;-96
2022/03/24 01:45:00;;;;;;;;;;;;;;;6.64;68.88;101881.28;5040086;28;1291;-96
2022/03/24 01:47:27;;;;;;;;;;;;;;;6.62;68.54;101874.41;5033748;28;1546;-96
2022/03/24 01:49:58;;;;;;;;;;;;;;;6.62;68.88;101877.09;5056057;28;1451;-95
2022/03/24 01:52:25;;;;;;;;;;;;;;;6.61;68.39;101868.22;5040125;28;1166;-95
2022/03/24 01:54:51;;;;;;;;;;;;;;;6.62;68.52;101875.28;5027215;28;1906;-95
2022/03/24 01:57:18;;;;;;;;;;;;;;;6.60;68.44;101867.38;5039840;28;1373;-96
2022/03/24 01:59:44;;;;;;;;;;;;;;;6.59;68.40;101865.72;5057789;28;1179;-95
2022/03/24 02:02:11;;;;;;;;;;;;;;;6.59;68.50;101860.38;5038422;28;1570;-96
2022/03/24 02:04:38;;;;;;;;;;;;;;;6.59;68.38;101857.69;5042526;28;1679;-96
2022/03/24 02:07:04;;;;;;;;;;;;;;;6.56;68.73;101855.34;5051780;28;2143;-96
2022/03/24 02:09:31;;;;;;;;;;;;;;;6.57;68.71;101845.47;5038127;28;1474;-96
2022/03/24 02:11:57;;;;;;;;;;;;;;;6.55;68.56;101844.78;5033702;28;1220;-96
2022/03/24 02:14:24;;;;;;;;;;;;;;;6.55;68.32;101842.09;5022413;28;3565;-96
2022/03/24 02:16:51;;;;;;;;;;;;;;;6.54;68.53;101843.94;5042650;28;1346;-95
2022/03/24 02:19:17;;;;;;;;;;;;;;;6.52;68.37;101851.28;5039725;28;1180;-96
2022/03/24 02:21:44;;;;;;;;;;;;;;;6.52;68.34;101848.59;5037908;28;1419;-96
2022/03/24 02:24:10;;;;;;;;;;;;;;;6.52;68.65;101843.25;5036196;28;1522;-95
2022/03/24 02:26:37;;;;;;;;;;;;;;;6.51;68.68;101838.09;5030938;28;1302;-96
2022/03/24 02:29:06;;;;;;;;;;;;;;;6.51;68.67;101838.91;5049453;28;2127;-96
2022/03/24 02:31:33;;;;;;;;;;;;;;;6.49;68.73;101829.38;5033326;28;3269;-96
2022/03/24 02:36:40;;;;;;;;;;;;;;;6.47;68.27;101832.22;5018838;28;1394;-96
2022/03/24 02:39:07;;;;;;;;;;;;;;;6.46;68.68;101838.56;5035635;28;1467;-96
2022/03/24 02:41:33;;;;;;;;;;;;;;;6.47;68.32;101837.56;5054769;28;1299;-96
2022/03/24 02:44:00;;;;;;;;;;;;;;;6.46;68.63;101837.72;5038786;28;1220;-96
2022/03/24 02:46:27;;;;;;;;;;;;;;;6.47;68.56;101834.91;5038797;28;1256;-95
2022/03/24 02:48:53;;;;;;;;;;;;;;;6.45;68.21;101833.38;5039086;28;1323;-96
2022/03/24 02:51:20;;;;;;;;;;;;;;;6.44;68.16;101831.69;5036765;28;1280;-96
2022/03/24 02:53:47;;;;;;;;;;;;;;;6.43;68.61;101832.69;5037763;28;1560;-96
2022/03/24 02:56:14;;;;;;;;;;;;;;;6.42;68.21;101834.53;5034069;28;1983;-95
2022/03/24 02:58:40;;;;;;;;;;;;;;;6.41;68.32;101835.50;5038066;28;1944;-96
2022/03/24 03:01:07;;;;;;;;;;;;;;;6.41;68.30;101823.97;5035042;28;1798;-95
2022/03/24 03:03:34;;;;;;;;;;;;;;;6.40;68.27;101824.97;5029175;28;1279;-96
2022/03/24 03:06:00;;;;;;;;;;;;;;;6.39;68.33;101826.81;5032164;28;1567;-96
2022/03/24 03:08:28;;;;;;;;;;;;;;;6.39;68.47;101826.00;5027432;28;3474;-95
2022/03/24 03:10:54;;;;;;;;;;;;;;;6.36;68.42;101821.81;5034361;28;4011;-96
2022/03/24 03:13:21;;;;;;;;;;;;;;;6.36;68.32;101819.13;5033054;28;1718;-96
2022/03/24 03:15:48;;;;;;;;;;;;;;;6.35;68.16;101812.06;5046522;28;1991;-95
2022/03/24 03:18:14;;;;;;;;;;;;;;;6.35;68.26;101814.75;5054026;28;1991;-95
2022/03/24 03:20:42;;;;;;;;;;;;;;;6.34;68.46;101811.25;5038192;28;1198;-96
2022/03/24 03:23:09;;;;;;;;;;;;;;;6.34;68.15;101813.91;5038033;28;1242;-95
2022/03/24 03:25:36;;;;;;;;;;;;;;;6.33;68.46;101820.28;5035210;28;1979;-96
2022/03/24 03:28:02;;;;;;;;;;;;;;;6.32;68.47;101809.72;5032561;28;1550;-96
2022/03/24 03:30:29;;;;;;;;;;;;;;;6.33;68.16;101822.13;5026314;28;1551;-96
2022/03/24 03:32:56;;;;;;;;;;;;;;;6.32;68.18;101812.41;5038124;28;1196;-96
2022/03/24 03:35:23;;;;;;;;;;;;;;;6.30;68.08;101812.56;5036401;28;1918;-96
2022/03/24 03:37:49;;;;;;;;;;;;;;;6.29;68.10;101805.53;5047975;28;1573;-96
2022/03/24 03:40:16;;;;;;;;;;;;;;;6.28;68.35;101805.72;5029248;28;2316;-96
2022/03/24 03:42:42;;;;;;;;;;;;;;;6.28;68.19;101803.88;5054429;28;1207;-96
2022/03/24 03:45:10;;;;;;;;;;;;;;;6.29;68.43;101810.03;5030915;28;1931;-96
2022/03/24 03:47:36;;;;;;;;;;;;;;;6.28;67.99;101811.88;5049460;28;1323;-95
2022/03/24 03:50:03;;;;;;;;;;;;;;;6.26;68.10;101813.03;5050614;28;1494;-96
2022/03/24 03:52:29;;;;;;;;;;;;;;;6.26;67.98;101810.38;5053965;28;1418;-96
2022/03/24 03:54:56;;;;;;;;;;;;;;;6.24;68.23;101807.03;5023092;28;1902;-95
2022/03/24 03:57:23;;;;;;;;;;;;;;;6.23;68.00;101810.69;5033686;28;1611;-96
2022/03/24 03:59:49;;;;;;;;;;;;;;;6.23;68.03;101808.00;5028023;28;1547;-96
2022/03/24 04:02:16;;;;;;;;;;;;;;;6.23;67.98;101802.66;5027108;28;1527;-96
2022/03/24 04:04:42;;;;;;;;;;;;;;;6.21;68.29;101796.66;5037703;28;1335;-96
2022/03/24 04:07:09;;;;;;;;;;;;;;;6.20;68.23;101801.16;5036986;28;1570;-95
2022/03/24 04:09:36;;;;;;;;;;;;;;;6.20;68.20;101797.63;5022312;28;1450;-96
2022/03/24 04:12:02;;;;;;;;;;;;;;;6.19;68.27;101802.16;5017569;28;1334;-96
2022/03/24 04:14:29;;;;;;;;;;;;;;;6.20;68.11;101811.00;5048440;28;1973;-96
2022/03/24 04:16:57;;;;;;;;;;;;;;;6.19;68.24;101799.47;5032366;28;1500;-95
2022/03/24 04:19:24;;;;;;;;;;;;;;;6.17;67.99;101798.78;5036916;28;1486;-96
2022/03/24 04:21:51;;;;;;;;;;;;;;;6.17;67.97;101792.59;5036308;28;1645;-96
2022/03/24 04:24:18;;;;;;;;;;;;;;;6.14;67.81;101789.25;5035304;28;1828;-96
2022/03/24 04:26:44;;;;;;;;;;;;;;;6.13;68.30;101782.22;5033925;28;1978;-95
2022/03/24 04:29:11;;;;;;;;;;;;;;;6.14;68.27;101788.41;5036538;28;1429;-96
2022/03/24 04:31:38;;;;;;;;;;;;;;;6.12;68.31;101788.59;5020322;28;1398;-95
2022/03/24 04:34:04;;;;;;;;;;;;;;;6.13;68.06;101789.44;5031443;28;1911;-95
2022/03/24 04:36:31;;;;;;;;;;;;;;;6.13;67.87;101786.75;5022267;28;1906;-96
2022/03/24 04:39:01;;;;;;;;;;;;;;;6.12;67.90;101790.44;5030290;28;1456;-95
2022/03/24 04:41:27;;;;;;;;;;;;;;;6.10;67.98;101779.88;5040534;28;1611;-96
2022/03/24 04:43:55;;;;;;;;;;;;;;;6.10;68.17;101779.03;5027541;28;1320;-95
2022/03/24 04:46:21;;;;;;;;;;;;;;;6.10;67.91;101789.75;5036658;28;1233;-95
2022/03/24 04:48:48;;;;;;;;;;;;;;;6.08;68.12;101781.88;5040428;28;1751;-96
2022/03/24 04:51:16;;;;;;;;;;;;;;;6.08;68.18;101787.22;5041359;28;1317;-96
2022/03/24 04:53:43;;;;;;;;;;;;;;;6.08;68.01;101789.06;5037428;28;1716;-96
2022/03/24 04:56:10;;;;;;;;;;;;;;;6.07;68.23;101787.38;5055203;28;3184;-96
2022/03/24 04:58:37;;;;;;;;;;;;;;;6.06;68.22;101783.88;5034599;28;3731;-95
2022/03/24 05:01:03;;;;;;;;;;;;;;;6.05;68.15;101784.88;5030756;28;1952;-96
2022/03/24 05:03:30;;;;;;;;;;;;;;;6.05;67.95;101790.22;5036929;28;1474;-95
2022/03/24 05:05:57;;;;;;;;;;;;;;;6.04;67.95;101791.22;5050363;28;1430;-96
2022/03/24 05:08:23;;;;;;;;;;;;;;;6.03;68.16;101786.00;5039412;28;1516;-95
2022/03/24 05:10:50;;;;;;;;;;;;;;;6.02;68.07;101781.69;5037182;28;1313;-96
2022/03/24 05:13:16;;;;;;;;;;;;;;;6.02;67.94;101781.69;5028305;28;1613;-95
2022/03/24 05:15:43;;;;;;;;;;;;;;;6.00;68.12;101778.31;5015480;28;1918;-95
2022/03/24 05:18:09;;;;;;;;;;;;;;;6.00;67.91;101772.97;5009121;28;1349;-95
2022/03/24 05:20:36;;;;;;;;;;;;;;;5.99;68.12;101774.81;5017111;28;1246;-95
2022/03/24 05:23:02;;;;;;;;;;;;;;;5.98;67.85;101772.31;5011801;28;1666;-96
2022/03/24 05:25:29;;;;;;;;;;;;;;;5.97;68.13;101774.16;5016565;28;1722;-95
2022/03/24 05:27:56;;;;;;;;;;;;;;;5.96;68.19;101756.41;5017320;28;1292;-96
2022/03/24 05:30:22;;;;;;;;;;;;;;;5.96;68.09;101760.91;5020463;28;1605;-95
2022/03/24 05:32:49;;;;;;;;;;;;;;;5.96;68.02;101756.41;5019496;28;1541;-96
2022/03/24 05:35:17;;;;;;;;;;;;;;;5.95;67.90;101753.91;5020276;28;1973;-96
2022/03/24 05:37:44;;;;;;;;;;;;;;;5.95;68.02;101751.22;5020181;28;1490;-96
2022/03/24 05:40:11;;;;;;;;;;;;;;;5.94;67.73;101749.53;5019382;28;1600;-95
2022/03/24 05:42:37;;;;;;;;;;;;;;;5.94;68.31;101749.53;5035671;28;1783;-96
2022/03/24 05:45:04;;;;;;;;;;;;;;;5.93;68.04;101759.41;5018918;28;1440;-95
2022/03/24 05:47:31;;;;;;;;;;;;;;;5.92;68.09;101760.38;5014359;28;1533;-95
2022/03/24 05:49:57;;;;;;;;;;;;;;;5.92;68.10;101755.88;5004449;28;1518;-96
2022/03/24 05:52:24;;;;;;;;;;;;;;;5.91;68.10;101759.53;5017622;28;1486;-96
2022/03/24 05:54:50;;;;;;;;;;;;;;;5.89;68.11;101741.97;5019141;28;1984;-95
2022/03/24 05:57:17;;;;;;;;;;;;;;;5.89;68.10;101747.34;5019975;28;1511;-95
2022/03/24 05:59:43;;;;;;;;;;;;;;;5.89;68.00;101750.84;5009780;28;1767;-95
2022/03/24 06:02:10;;;;;;;;;;;;;;;5.88;67.71;101746.50;5015463;28;1558;-96
2022/03/24 06:04:38;;;;;;;;;;;;;;;5.87;68.04;101758.16;5018277;28;1413;-96
2022/03/24 06:07:07;;;;;;;;;;;;;;;5.87;68.00;101749.31;5019605;28;1315;-95
2022/03/24 06:09:34;;;;;;;;;;;;;;;5.86;67.89;101747.66;5016113;28;3631;-95
2022/03/24 06:12:01;;;;;;;;;;;;;;;5.86;67.81;101756.50;5015410;28;1838;-96
2022/03/24 06:14:29;;;;;;;;;;;;;;;5.86;68.01;101744.97;5013482;28;1554;-96
2022/03/24 06:16:56;;;;;;;;;;;;;;;5.84;67.93;101737.09;5024174;28;3475;-95
2022/03/24 06:19:22;;;;;;;;;;;;;;;5.84;67.85;101738.94;5033884;28;3863;-96
2022/03/24 06:21:49;;;;;;;;;;;;;;;5.84;67.76;101758.50;5048286;28;3535;-95
2022/03/24 06:24:16;;;;;;;;;;;;;;;5.82;67.78;101749.78;5026332;28;3587;-96
2022/03/24 06:26:42;;;;;;;;;;;;;;;5.82;67.82;101754.28;5019329;28;1240;-96
2022/03/24 06:29:11;;;;;;;;;;;;;;;5.81;67.74;101752.63;5028243;28;1828;-96
2022/03/24 06:31:37;;;;;;;;;;;;;;;5.80;67.96;101750.97;5045150;28;1628;-96
2022/03/24 06:34:04;;;;;;;;;;;;;;;5.80;67.99;101745.63;5039034;28;1364;-95
2022/03/24 06:36:30;;;;;;;;;;;;;;;5.79;67.84;101752.78;5040154;28;1977;-96
2022/03/24 06:38:57;;;;;;;;;;;;;;;5.77;67.65;101760.13;5037697;28;2108;-96
2022/03/24 06:41:24;;;;;;;;;;;;;;;5.77;67.96;101746.78;5029374;28;1515;-95
2022/03/24 06:43:50;;;;;;;;;;;;;;;5.77;68.12;101745.94;5038518;28;1479;-95
2022/03/24 06:46:17;;;;;;;;;;;;;;;5.77;67.70;101737.91;5037138;28;1770;-95
2022/03/24 06:48:43;;;;;;;;;;;;;;;5.76;67.79;101739.72;5036742;28;1840;-95
2022/03/24 06:51:10;;;;;;;;;;;;;;;5.75;67.64;101743.41;5025127;28;1412;-96
2022/03/24 06:53:36;;;;;;;;;;;;;;;5.76;67.67;101737.06;5035935;28;1683;-96
2022/03/24 06:56:05;;;;;;;;;;;;;;;5.75;67.82;101746.09;5022590;28;1989;-96
2022/03/24 06:58:31;;;;;;;;;;;;;;;5.74;67.83;101752.44;5020386;28;1811;-94
2022/03/24 07:00:58;;;;;;;;;;;;;;;5.75;67.99;101750.59;5029935;28;1802;-95
2022/03/24 07:03:24;;;;;;;;;;;;;;;5.74;67.87;101756.94;5026699;28;3630;-95
2022/03/24 07:05:51;;;;;;;;;;;;;;;5.73;67.61;101753.41;5032971;28;1492;-95
2022/03/24 07:08:18;;;;;;;;;;;;;;;5.71;68.03;101758.09;5026710;28;1408;-95
2022/03/24 07:10:45;;;;;;;;;;;;;;;5.71;67.82;101766.13;5031327;28;1542;-96
2022/03/24 07:13:11;;;;;;;;;;;;;;;5.70;67.89;101757.25;5025491;28;1859;-96
2022/03/24 07:15:38;;;;;;;;;;;;;;;5.71;67.77;101758.09;5028193;28;2193;-95
2022/03/24 07:18:05;;;;;;;;;;;;;;;5.68;67.83;101756.56;5028728;28;1514;-96
2022/03/24 07:20:33;;;;;;;;;;;;;;;5.69;67.87;101762.75;5032886;28;1888;-96
2022/03/24 07:23:02;;;;;;;;;;;;;;;5.69;67.93;101766.25;5037664;28;1412;-96
2022/03/24 07:25:29;;;;;;;;;;;;;;;5.68;67.91;101758.41;5055650;28;1494;-95
2022/03/24 07:27:56;;;;;;;;;;;;;;;5.67;67.78;101760.22;5037427;28;1526;-95
2022/03/24 07:30:22;;;;;;;;;;;;;;;5.67;67.78;101760.22;5034093;28;2065;-95
2022/03/24 07:32:49;;;;;;;;;;;;;;;5.68;67.55;101745.88;5027877;28;1821;-96
2022/03/24 07:35:16;;;;;;;;;;;;;;;5.67;67.67;101754.03;5029222;28;1277;-95
2022/03/24 07:37:42;;;;;;;;;;;;;;;5.66;67.85;101739.03;5035075;28;1971;-96
2022/03/24 07:40:10;;;;;;;;;;;;;;;5.65;67.70;101738.19;5037306;28;1565;-96
2022/03/24 07:42:36;;;;;;;;;;;;;;;5.64;67.79;101741.84;5028391;28;1923;-96
2022/03/24 07:45:02;;;;;;;;;;;;;;;5.64;67.52;101747.19;5034950;28;1557;-95
2022/03/24 07:47:29;;;;;;;;;;;;;;;5.65;67.75;101750.72;5036375;28;1340;-95
2022/03/24 07:49:56;;;;;;;;;;;;;;;5.63;67.52;101756.19;5035210;28;1761;-96
2022/03/24 07:52:22;;;;;;;;;;;;;;;5.64;67.59;101749.03;5035790;28;2178;-95
2022/03/24 07:54:49;;;;;;;;;;;;;;;5.64;67.65;101743.69;5030757;28;1609;-95
2022/03/24 07:57:15;;;;;;;;;;;;;;;5.63;67.66;101745.50;5033943;28;2002;-95
2022/03/24 07:59:42;;;;;;;;;;;;;;;5.62;67.49;101741.19;5049668;28;2319;-95
2022/03/24 08:02:08;;;;;;;;;;;;;;;5.63;67.64;101750.03;5037536;28;1932;-95
2022/03/24 08:04:35;;;;;;;;;;;;;;;5.63;67.75;101766.91;5030012;28;1560;-96
2022/03/24 08:07:01;;;;;;;;;;;;;;;5.62;67.60;101759.88;5023250;28;1559;-95
2022/03/24 08:09:28;;;;;;;;;;;;;;;5.61;67.54;101774.22;5035866;28;1479;-96
2022/03/24 08:11:54;;;;;;;;;;;;;;;5.61;67.52;101762.69;5026797;28;3692;-96
2022/03/24 08:14:22;;;;;;;;;;;;;;;5.60;67.70;101763.72;5029879;28;1887;-96
2022/03/24 08:16:48;;;;;;;;;;;;;;;5.60;67.46;101753.00;5036862;28;1918;-96
2022/03/24 08:19:15;;;;;;;;;;;;;;;5.60;67.68;101763.72;5045442;28;1653;-96
2022/03/24 08:21:42;;;;;;;;;;;;;;;5.58;67.51;101753.16;5021165;28;3860;-96
2022/03/24 08:24:08;;;;;;;;;;;;;;;5.59;67.63;101752.19;5034078;28;3707;-96
2022/03/24 08:26:35;;;;;;;;;;;;;;;5.59;67.56;101746.84;5037547;28;1207;-96
2022/03/24 08:29:02;;;;;;;;;;;;;;;5.59;67.44;101744.16;5037505;28;1278;-95
2022/03/24 08:31:28;;;;;;;;;;;;;;;5.59;67.43;101741.50;5032973;28;1675;-96
2022/03/24 08:33:55;;;;;;;;;;;;;;;5.59;67.48;101751.31;5023350;28;2790;-96
2022/03/24 08:36:22;;;;;;;;;;;;;;;5.59;67.40;101748.66;5033616;28;2168;-96
2022/03/24 08:38:48;;;;;;;;;;;;;;;5.58;67.66;101747.81;5032654;28;1610;-96
2022/03/24 08:41:15;;;;;;;;;;;;;;;5.55;67.58;101732.09;5022004;28;1356;-95
2022/03/24 08:43:41;;;;;;;;;;;;;;;5.58;67.55;101720.25;5025980;28;1577;-96
2022/03/24 08:46:09;;;;;;;;;;;;;;;5.58;67.61;101737.13;5029165;28;2092;-96
2022/03/24 08:48:35;;;;;;;;;;;;;;;5.58;67.33;101741.63;5032857;28;1631;-96
2022/03/24 08:51:01;;;;;;;;;;;;;;;5.56;67.64;101736.47;5025280;28;1957;-96
2022/03/24 08:53:28;;;;;;;;;;;;;;;5.57;67.39;101734.63;5036248;28;1425;-96
2022/03/24 08:55:55;;;;;;;;;;;;;;;5.56;67.63;101736.47;5036793;28;1910;-96
2022/03/24 08:58:24;;;;;;;;;;;;;;;5.57;67.51;101742.63;5036943;28;1188;-96
2022/03/24 09:00:51;;;;;;;;;;;;;;;5.56;67.34;101727.59;5037353;28;1178;-96
2022/03/24 09:03:17;;;;;;;;;;;;;;;5.56;67.42;101735.59;5030162;28;3333;-95
2022/03/24 09:05:44;;;;;;;;;;;;;;;5.56;67.65;101735.59;5037050;28;1340;-95
2022/03/24 09:08:12;;;;;;;;;;;;;;;5.55;67.51;101734.78;5022480;28;1613;-95
2022/03/24 09:10:38;;;;;;;;;;;;;;;5.55;67.63;101734.78;5037212;28;1557;-96
2022/03/24 09:13:05;;;;;;;;;;;;;;;5.54;67.50;101733.09;5016901;28;1422;-96
2022/03/24 09:15:32;;;;;;;;;;;;;;;5.55;67.50;101740.13;5048820;28;1035;-95
2022/03/24 09:17:59;;;;;;;;;;;;;;;5.55;67.22;101736.59;5033574;28;1985;-95
2022/03/24 09:20:26;;;;;;;;;;;;;;;5.54;67.36;101727.75;5017765;28;1302;-95
2022/03/24 09:22:53;;;;;;;;;;;;;;;5.55;67.33;101736.59;5036325;28;1807;-96
2022/03/24 09:25:20;;;;;;;;;;;;;;;5.54;67.49;101741.13;5039449;28;1486;-95
2022/03/24 09:27:47;;;;;;;;;;;;;;;5.55;67.30;101740.13;5058222;28;1093;-96
2022/03/24 09:30:15;;;;;;;;;;;;;;;5.53;67.52;101733.25;5040245;28;1372;-96
2022/03/24 09:32:42;;;;;;;;;;;;;;;5.53;67.35;101727.91;5028526;28;2356;-95
2022/03/24 09:35:09;;;;;;;;;;;;;;;5.53;67.44;101731.44;5053900;28;1232;-96
2022/03/24 09:37:35;;;;;;;;;;;;;;;5.54;67.34;101729.59;5037216;28;2002;-95
2022/03/24 09:40:02;;;;;;;;;;;;;;;5.53;67.39;101725.22;5035043;28;2106;-95
2022/03/24 09:42:29;;;;;;;;;;;;;;;5.53;67.19;101728.75;5028924;28;1448;-96
2022/03/24 09:44:55;;;;;;;;;;;;;;;5.53;67.41;101733.25;5020057;28;1360;-95
2022/03/24 09:47:22;;;;;;;;;;;;;;;5.52;67.18;101724.41;5024429;28;1635;-95
2022/03/24 09:49:49;;;;;;;;;;;;;;;5.53;67.28;101719.88;5020344;28;2386;-95
2022/03/24 09:52:16;;;;;;;;;;;;;;;5.52;67.36;101729.75;5039959;28;1291;-95
2022/03/24 09:54:45;;;;;;;;;;;;;;;5.52;67.27;101724.41;5038958;28;2050;-95
2022/03/24 09:57:12;;;;;;;;;;;;;;;5.52;67.26;101723.56;5020444;28;2185;-95
2022/03/24 09:59:38;;;;;;;;;;;;;;;5.52;67.48;101713.69;5037193;28;2218;-96
2022/03/24 10:02:05;;;;;;;;;;;;;;;5.53;67.04;101718.06;5035907;28;1996;-95
2022/03/24 10:04:31;;;;;;;;;;;;;;;5.53;67.36;101711.88;5026731;28;3439;-95
2022/03/24 10:06:58;;;;;;;;;;;;;;;5.53;67.21;101711.88;5025685;28;1596;-96
2022/03/24 10:09:25;;;;;;;;;;;;;;;5.53;67.26;101710.06;5041685;28;2124;-96
2022/03/24 10:11:51;;;;;;;;;;;;;;;5.52;67.34;101724.41;5036853;28;1368;-96
2022/03/24 10:14:18;;;;;;;;;;;;;;;5.53;67.36;101717.22;5038274;28;2007;-96
2022/03/24 10:16:45;;;;;;;;;;;;;;;5.53;67.38;101712.72;5036109;28;2074;-96
2022/03/24 10:19:12;;;;;;;;;;;;;;;5.53;67.15;101711.88;5039582;28;1198;-95
2022/03/24 10:21:38;;;;;;;;;;;;;;;5.52;67.35;101704.84;5039555;28;1333;-95
2022/03/24 10:24:05;;;;;;;;;;;;;;;5.53;67.14;101710.06;5037449;28;1441;-96
2022/03/24 10:26:31;;;;;;;;;;;;;;;5.53;67.46;101710.06;5039227;28;1183;-95
2022/03/24 10:28:58;;;;;;;;;;;;;;;5.53;67.31;101703.84;5036897;28;2161;-95
2022/03/24 10:31:25;;;;;;;;;;;;;;;5.51;67.32;101704.03;5036277;28;1740;-96
2022/03/24 10:33:51;;;;;;;;;;;;;;;5.52;67.34;101711.03;5039029;28;1201;-95
2022/03/24 10:36:18;;;;;;;;;;;;;;;5.54;67.28;101708.22;5056959;28;1906;-96
2022/03/24 10:38:45;;;;;;;;;;;;;;;5.54;67.32;101700.19;5033980;28;3226;-95
2022/03/24 10:41:21;;;;;;;;;;;;;;;;;;;;;
2022/03/24 10:44:08;;;;;;;;;;;;;;;5.54;67.12;101708.22;5029193;28;1054;-95
2022/03/24 10:46:36;;;;;;;;;;;;;;;5.53;67.35;101707.38;5031613;28;1185;-95
2022/03/24 10:49:03;;;;;;;;;;;;;;;5.54;67.24;101708.22;5035099;28;1920;-96
2022/03/24 10:51:29;;;;;;;;;;;;;;;5.53;67.29;101711.88;5038547;28;1378;-96
2022/03/24 10:53:56;;;;;;;;;;;;;;;5.54;67.33;101698.34;5038794;28;1389;-95
2022/03/24 10:56:22;;;;;;;;;;;;;;;5.53;67.06;101707.38;5054809;28;1909;-96
2022/03/24 10:58:49;;;;;;;;;;;;;;;5.54;67.14;101710.88;5037940;28;1639;-96
2022/03/24 11:01:15;;;;;;;;;;;;;;;5.54;66.91;101702.88;5038681;28;1327;-95
2022/03/24 11:03:43;;;;;;;;;;;;;;;5.55;66.98;101701.88;5026967;28;3558;-95
2022/03/24 11:06:10;;;;;;;;;;;;;;;5.54;66.78;101702.88;5018599;28;1308;-95
2022/03/24 11:08:36;;;;;;;;;;;;;;;5.55;67.00;101699.19;5041181;28;1490;-95
2022/03/24 11:11:04;;;;;;;;;;;;;;;5.54;66.92;101698.34;5033159;28;1483;-95
2022/03/24 11:13:30;;;;;;;;;;;;;;;5.54;67.36;101698.34;5037649;28;1275;-96
2022/03/24 11:15:57;;;;;;;;;;;;;;;5.55;67.13;101693.84;5037537;28;1873;-95
2022/03/24 11:18:24;;;;;;;;;;;;;;;5.55;67.07;101689.34;5038084;28;1899;-96
2022/03/24 11:20:51;;;;;;;;;;;;;;;5.56;67.25;101693.69;5038235;28;1192;-95
2022/03/24 11:23:17;;;;;;;;;;;;;;;5.56;67.20;101696.38;5026226;28;1552;-96
2022/03/24 11:25:44;;;;;;;;;;;;;;;5.56;67.27;101698.19;5044114;28;1981;-95
2022/03/24 11:28:13;;;;;;;;;;;;;;;5.58;67.06;101698.88;5018658;28;1176;-95
2022/03/24 11:30:39;;;;;;;;;;;;;;;5.57;67.16;101695.38;5029492;28;1424;-95
2022/03/24 11:33:07;;;;;;;;;;;;;;;5.58;67.03;101688.19;5018148;28;1581;-95
2022/03/24 11:35:34;;;;;;;;;;;;;;;5.58;67.17;101681.00;5026878;28;2035;-96
2022/03/24 11:38:01;;;;;;;;;;;;;;;5.59;67.08;101673.81;5037198;28;1988;-95
2022/03/24 11:40:28;;;;;;;;;;;;;;;5.62;67.06;101682.38;5035782;28;1624;-96
2022/03/24 11:42:54;;;;;;;;;;;;;;;5.62;67.12;101681.53;5037737;28;1268;-95
2022/03/24 11:45:21;;;;;;;;;;;;;;;5.61;67.15;101679.84;5035549;28;1915;-95
2022/03/24 11:47:48;;;;;;;;;;;;;;;5.61;67.05;101674.50;5034769;28;3324;-96
2022/03/24 11:50:17;;;;;;;;;;;;;;;5.61;67.09;101671.81;5018574;28;1527;-96
2022/03/24 11:52:44;;;;;;;;;;;;;;;5.66;66.99;101669.53;5017870;28;1359;-95
2022/03/24 11:55:10;;;;;;;;;;;;;;;5.63;67.00;101670.69;5048489;28;2159;-96
2022/03/24 11:57:37;;;;;;;;;;;;;;;5.64;67.07;101666.16;5053032;28;2307;-96
2022/03/24 12:00:03;;;;;;;;;;;;;;;5.64;67.06;101663.50;5037261;28;1355;-96
2022/03/24 12:02:30;;;;;;;;;;;;;;;5.63;67.28;101670.69;5037367;28;1396;-96
2022/03/24 12:04:56;;;;;;;;;;;;;;;5.65;67.17;101657.16;5026080;28;1486;-96
2022/03/24 12:07:23;;;;;;;;;;;;;;;5.66;67.23;101648.97;5017717;28;1348;-96
2022/03/24 12:09:50;;;;;;;;;;;;;;;5.65;66.97;101652.66;5026058;28;1577;-96
2022/03/24 12:12:17;;;;;;;;;;;;;;;5.68;67.25;101646.97;5033516;28;1580;-96
2022/03/24 12:14:44;;;;;;;;;;;;;;;5.70;67.15;101647.63;5036103;28;1908;-96
2022/03/24 12:17:11;;;;;;;;;;;;;;;5.75;67.00;101652.50;5030472;28;1914;-96
2022/03/24 12:19:37;;;;;;;;;;;;;;;5.76;67.13;101648.00;5025059;28;1353;-96
2022/03/24 12:22:04;;;;;;;;;;;;;;;5.80;66.73;101641.34;5033962;28;1280;-96
2022/03/24 12:24:30;;;;;;;;;;;;;;;5.83;66.62;101646.38;5023556;28;1668;-96
2022/03/24 12:26:59;;;;;;;;;;;;;;;5.85;66.72;101633.66;5037448;28;1187;-96
2022/03/24 12:29:26;;;;;;;;;;;;;;;5.83;66.89;101633.00;5039386;28;1385;-96
2022/03/24 12:31:54;;;;;;;;;;;;;;;5.83;67.02;101636.50;5033428;28;1517;-96
2022/03/24 12:34:21;;;;;;;;;;;;;;;5.85;66.87;101634.53;5034325;28;1280;-96
2022/03/24 12:36:47;;;;;;;;;;;;;;;5.88;66.66;101636.00;5018096;28;1913;-96
2022/03/24 12:39:14;;;;;;;;;;;;;;;5.90;66.77;101620.66;5022664;28;1461;-96
2022/03/24 12:41:41;;;;;;;;;;;;;;;5.89;66.92;101619.81;5036911;28;2502;-96
2022/03/24 12:44:08;;;;;;;;;;;;;;;5.90;66.93;101616.13;5034623;28;1502;-96
2022/03/24 12:46:36;;;;;;;;;;;;;;;5.90;66.95;101618.81;5027979;28;1515;-96
2022/03/24 12:49:02;;;;;;;;;;;;;;;5.87;66.76;101608.44;5038074;28;1538;-96
2022/03/24 12:51:29;;;;;;;;;;;;;;;5.89;66.91;101608.28;5038057;28;1279;-96
2022/03/24 12:53:56;;;;;;;;;;;;;;;5.90;66.99;101605.44;5038312;28;1485;-96
2022/03/24 12:56:23;;;;;;;;;;;;;;;5.92;67.12;101610.63;5021187;28;1375;-96
2022/03/24 12:58:49;;;;;;;;;;;;;;;5.92;66.89;101611.47;5055818;28;1969;-96